Time;durP1;ratioP1;P1;durP2;ratioP2;P2;SDS_P1;SDS_P2;PMS_P1;PMS_P2;Temp;Humidity;BMP_temperature;BMP_pressure;BME280_temperature;BME280_humidity;BME280_pressure;Samples;Min_cycle;Max_cycle;Signal;HPM_P1;HPM_P2
2022/10/26 00:02:27;;;;;;;0.80;0.80;;;;;;;12.88;71.25;100877.69;5079173;29;20091;-81
2022/10/26 00:04:58;;;;;;;5.43;0.55;;;;;;;12.78;74.71;100871.03;5078127;29;20040;-81
2022/10/26 00:07:29;;;;;;;0.47;0.47;;;;;;;12.66;76.48;100868.81;5072270;29;20046;-81
2022/10/26 00:09:59;;;;;;;1.45;0.55;;;;;;;12.69;74.96;100868.69;5093373;29;20036;-81
2022/10/26 00:12:30;;;;;;;0.22;0.22;;;;;;;12.76;73.89;100859.69;5077347;29;20063;-81
2022/10/26 00:15:00;;;;;;;0.30;0.30;;;;;;;12.78;74.90;100860.50;5078127;29;20040;-81
2022/10/26 00:17:31;;;;;;;0.52;0.52;;;;;;;12.77;73.95;100853.50;5080159;29;20162;-81
2022/10/26 00:20:02;;;;;;;0.40;0.40;;;;;;;12.80;73.43;100853.41;5078916;29;20056;-82
2022/10/26 00:22:32;;;;;;;3.50;0.77;;;;;;;12.74;75.61;100846.56;5078126;29;20068;-81
2022/10/26 00:25:03;;;;;;;1.05;1.05;;;;;;;12.77;73.77;100848.22;5073146;29;20037;-81
2022/10/26 00:27:34;;;;;;;0.73;0.73;;;;;;;12.79;76.06;100854.31;5076408;29;20056;-81
2022/10/26 00:30:05;;;;;;;0.43;0.43;;;;;;;12.82;75.38;100854.22;5108364;29;20075;-81
2022/10/26 00:32:36;;;;;;;0.68;0.68;;;;;;;12.87;74.37;100857.53;5113234;29;20040;-81
2022/10/26 00:35:07;;;;;;;0.52;0.52;;;;;;;12.81;75.92;100855.13;5116492;28;20067;-80
2022/10/26 00:37:37;;;;;;;0.30;0.30;;;;;;;12.82;74.32;100859.50;5105641;29;20071;-80
2022/10/26 00:40:11;;;;;;;0.98;0.93;;;;;;;12.87;73.75;100854.06;5098624;29;20043;-81
2022/10/26 00:42:41;;;;;;;0.30;0.30;;;;;;;12.90;73.24;100851.31;5083773;29;20050;-80
2022/10/26 00:45:30;;;;;;;0.40;0.40;;;;;;;12.91;73.51;100856.53;5095918;29;20115;-81
2022/10/26 00:48:06;;;;;;;0.35;0.35;;;;;;;12.95;73.74;100846.75;5097994;28;20071;-80
2022/10/26 00:50:43;;;;;;;1.20;1.17;;;;;;;12.89;73.92;100852.25;5115485;29;20046;-81
2022/10/26 00:53:14;;;;;;;1.98;1.58;;;;;;;12.90;73.46;100848.66;5109749;28;20122;-82
2022/10/26 00:55:48;;;;;;;2.80;1.77;;;;;;;12.94;73.25;100852.94;5097280;29;20064;-81
2022/10/26 00:58:21;;;;;;;0.68;0.68;;;;;;;13.10;74.02;100857.66;5077840;29;20250;-81
2022/10/26 01:00:52;;;;;;;0.40;0.40;;;;;;;12.93;74.83;100858.25;5083693;29;20039;-81
2022/10/26 01:03:26;;;;;;;0.22;0.22;;;;;;;12.93;74.32;100847.72;5072213;29;20040;-81
2022/10/26 01:05:57;;;;;;;1.38;0.77;;;;;;;12.94;73.70;100854.69;5115653;28;20083;-82
2022/10/26 01:08:28;;;;;;;8.88;1.38;;;;;;;12.95;73.48;100845.88;5085075;29;20036;-81
2022/10/26 01:11:00;;;;;;;0.47;0.47;;;;;;;13.00;73.53;100841.31;5114363;29;20638;-81
2022/10/26 01:13:32;;;;;;;0.50;0.50;;;;;;;12.97;74.42;100846.69;5109959;28;20130;-81
2022/10/26 01:16:40;;;;;;;0.30;0.30;;;;;;;13.01;73.82;100836.00;5081922;29;20063;-81
2022/10/26 01:19:10;;;;;;;3.85;0.77;;;;;;;12.97;74.31;100828.25;5062152;29;20063;-81
2022/10/26 01:21:55;;;;;;;0.32;0.32;;;;;;;13.00;74.12;100828.16;5095892;29;20035;-80
2022/10/26 01:24:51;;;;;;;0.40;0.40;;;;;;;13.04;73.78;100829.75;5099410;29;20044;-81
2022/10/26 01:27:33;;;;;;;0.20;0.20;;;;;;;13.04;73.55;100824.47;5055593;29;20028;-81
2022/10/26 01:30:34;;;;;;;0.32;0.32;;;;;;;13.04;73.70;100824.47;5093807;29;20046;-80
2022/10/26 01:33:28;;;;;;;0.50;0.50;;;;;;;13.07;73.61;100824.38;5094550;29;20730;-81
2022/10/26 01:36:06;;;;;;;;;;;;;;;13.06;73.71;100818.25;5083785;29;20032;-80
2022/10/26 01:39:21;;;;;;;0.30;0.30;;;;;;;13.02;74.72;100818.41;5085990;29;20382;-81
2022/10/26 01:41:59;;;;;;;1.77;1.20;;;;;;;13.06;73.71;100812.13;5111843;28;20124;-81
2022/10/26 01:44:35;;;;;;;0.32;0.32;;;;;;;13.06;73.83;100809.50;5079960;29;20079;-82
2022/10/26 01:47:08;;;;;;;0.30;0.30;;;;;;;13.05;74.92;100800.75;5085681;29;20497;-81
2022/10/26 01:49:55;;;;;;;0.77;0.75;;;;;;;13.09;73.86;100800.63;5097472;29;20447;-81
2022/10/26 01:52:26;;;;;;;0.50;0.50;;;;;;;13.12;73.48;100801.34;5093353;29;20064;-81
2022/10/26 01:55:25;;;;;;;0.40;0.40;;;;;;;13.12;73.47;100801.34;5078726;29;20439;-81
2022/10/26 01:58:09;;;;;;;0.20;0.20;;;;;;;13.10;74.01;100787.38;5095697;28;20054;-81
2022/10/26 02:00:44;;;;;;;;;;;;;;;13.15;73.68;100789.84;5064547;29;20344;-80
2022/10/26 02:03:30;;;;;;;0.80;0.75;;;;;;;13.07;74.33;100792.78;5091203;29;19951;-81
2022/10/26 02:06:16;;;;;;;0.38;0.38;;;;;;;13.10;74.17;100791.81;5073500;29;20045;-82
2022/10/26 02:08:53;;;;;;;0.30;0.30;;;;;;;13.13;73.80;100789.91;5104282;29;20066;-80
2022/10/26 02:11:38;;;;;;;0.57;0.57;;;;;;;13.16;73.65;100791.56;5091570;29;20032;-81
2022/10/26 02:14:16;;;;;;;0.20;0.20;;;;;;;13.15;73.51;100785.47;5102025;29;20044;-81
2022/10/26 02:17:01;;;;;;;0.30;0.30;;;;;;;13.11;74.62;100789.09;5060049;29;20036;-81
2022/10/26 02:19:35;;;;;;;1.50;1.23;;;;;;;13.09;74.32;100780.41;5087978;29;20044;-80
2022/10/26 02:22:32;;;;;;;4.13;2.17;;;;;;;13.08;74.53;100781.34;5090676;29;20071;-81
2022/10/26 02:25:18;;;;;;;0.30;0.30;;;;;;;13.13;74.22;100775.91;5073252;29;20040;-82
2022/10/26 02:27:54;;;;;;;0.20;0.20;;;;;;;13.14;74.08;100770.56;5100699;29;20028;-81
2022/10/26 02:30:25;;;;;;;0.55;0.55;;;;;;;13.08;74.89;100773.44;5069708;29;20028;-81
2022/10/26 02:33:03;;;;;;;0.32;0.32;;;;;;;13.11;74.96;100773.28;5109282;23;20044;-82
2022/10/26 02:35:37;;;;;;;0.20;0.20;;;;;;;13.21;74.08;100779.94;5094136;29;20048;-83
2022/10/26 02:38:11;;;;;;;0.65;0.65;;;;;;;13.14;74.58;100778.47;5108791;28;20036;-82
2022/10/26 02:40:44;;;;;;;0.32;0.32;;;;;;;13.10;74.73;100774.22;5092860;29;20067;-82
2022/10/26 02:43:21;;;;;;;0.50;0.50;;;;;;;13.12;74.86;100769.75;5099901;28;20040;-82
2022/10/26 02:46:02;;;;;;;14.55;1.85;;;;;;;13.13;75.29;100763.56;5092950;29;20971;-81
2022/10/26 02:48:36;;;;;;;0.90;0.57;;;;;;;13.17;74.95;100762.56;5090618;29;20044;-82
2022/10/26 02:51:45;;;;;;;0.30;0.30;;;;;;;13.14;75.14;100767.09;5083196;29;20546;-81
2022/10/26 02:54:48;;;;;;;0.50;0.50;;;;;;;13.11;76.68;100769.81;5091519;29;20040;-83
2022/10/26 02:57:25;;;;;;;0.30;0.30;;;;;;;13.18;74.52;100769.50;5090833;29;20040;-82
2022/10/26 02:59:57;;;;;;;0.50;0.50;;;;;;;13.18;75.00;100766.88;5073221;29;20075;-82
2022/10/26 03:02:36;;;;;;;0.30;0.30;;;;;;;13.31;75.14;100758.53;5089998;29;20040;-82
2022/10/26 03:05:26;;;;;;;0.30;0.30;;;;;;;13.22;75.15;100747.41;5073426;29;20051;-82
2022/10/26 03:07:58;;;;;;;0.30;0.30;;;;;;;13.28;74.91;100748.09;5116358;28;20301;-82
2022/10/26 03:10:31;;;;;;;0.20;0.20;;;;;;;13.21;75.12;100750.97;5088456;29;20412;-84
2022/10/26 03:13:02;;;;;;;1.45;0.60;;;;;;;13.26;74.83;100744.69;5060260;29;20055;-83
2022/10/26 03:15:32;;;;;;;0.68;0.68;;;;;;;13.25;74.92;100737.69;5119807;28;20415;-82
2022/10/26 03:18:03;;;;;;;0.40;0.40;;;;;;;13.21;75.40;100752.75;5088081;28;20044;-82
2022/10/26 03:20:34;;;;;;;0.38;0.38;;;;;;;13.23;74.88;100745.63;5107156;29;20029;-83
2022/10/26 03:23:07;;;;;;;0.30;0.30;;;;;;;13.19;76.17;100742.25;5083578;28;20095;-82
2022/10/26 03:25:39;;;;;;;0.45;0.45;;;;;;;13.20;75.69;100757.16;5071741;29;20036;-81
2022/10/26 03:28:09;;;;;;;0.60;0.60;;;;;;;13.20;75.13;100746.63;5086254;29;20055;-82
2022/10/26 03:30:40;;;;;;;0.32;0.32;;;;;;;13.21;75.15;100745.69;5055000;29;20036;-82
2022/10/26 03:33:11;;;;;;;0.30;0.30;;;;;;;13.23;75.18;100750.91;5077072;29;20519;-83
2022/10/26 03:35:42;;;;;;;0.50;0.50;;;;;;;13.34;75.08;100745.25;5138005;28;20039;-82
2022/10/26 03:38:15;;;;;;;0.20;0.20;;;;;;;13.23;75.14;100749.16;5117564;28;20051;-83
2022/10/26 03:40:47;;;;;;;0.60;0.60;;;;;;;13.27;74.99;100743.75;5121276;28;20039;-83
2022/10/26 03:43:17;;;;;;;0.20;0.20;;;;;;;13.26;75.38;100739.41;5130505;28;20040;-81
2022/10/26 03:45:48;;;;;;;0.30;0.30;;;;;;;13.26;75.39;100750.78;5120242;28;20270;-82
2022/10/26 03:48:23;;;;;;;1.83;1.73;;;;;;;13.35;75.20;100746.94;5103139;28;20053;-83
2022/10/26 03:50:58;;;;;;;0.20;0.20;;;;;;;13.34;74.99;100745.25;5121192;28;20044;-82
2022/10/26 03:53:28;;;;;;;0.95;0.93;;;;;;;13.29;76.89;100739.28;5102330;28;20035;-84
2022/10/26 03:55:59;;;;;;;0.40;0.40;;;;;;;13.29;75.75;100745.41;5118992;28;20023;-82
2022/10/26 03:58:30;;;;;;;0.45;0.45;;;;;;;13.23;76.81;100741.25;5136486;28;20048;-82
2022/10/26 04:01:01;;;;;;;1.23;1.08;;;;;;;13.28;75.59;100735.78;5113154;28;20310;-83
2022/10/26 04:03:31;;;;;;;0.47;0.47;;;;;;;13.37;75.40;100745.13;5116713;28;20115;-81
2022/10/26 04:06:04;;;;;;;0.32;0.32;;;;;;;13.36;75.11;100746.03;5106225;29;20024;-81
2022/10/26 04:08:34;;;;;;;0.68;0.68;;;;;;;13.35;75.15;100744.31;5074775;28;20145;-83
2022/10/26 04:11:05;;;;;;;0.30;0.30;;;;;;;13.30;76.45;100741.00;5091501;29;20134;-82
2022/10/26 04:13:42;;;;;;;0.30;0.30;;;;;;;13.39;75.40;100745.94;5104993;29;20539;-83
2022/10/26 04:16:12;;;;;;;0.50;0.50;;;;;;;13.41;75.71;100752.03;5107857;29;20035;-83
2022/10/26 04:18:43;;;;;;;0.38;0.38;;;;;;;13.42;75.81;100744.97;5122739;28;20056;-84
2022/10/26 04:21:13;;;;;;;0.40;0.40;;;;;;;13.39;75.47;100751.22;5102672;28;20092;-81
2022/10/26 04:23:44;;;;;;;1.17;0.88;;;;;;;13.34;75.78;100746.09;5116096;28;20519;-83
2022/10/26 04:26:14;;;;;;;0.22;0.22;;;;;;;13.32;77.01;100747.06;5105046;29;20034;-83
2022/10/26 04:28:45;;;;;;;0.32;0.32;;;;;;;13.37;75.66;100748.63;5107237;29;20036;-81
2022/10/26 04:31:19;;;;;;;1.23;0.63;;;;;;;13.38;76.31;100749.47;5108567;28;20031;-81
2022/10/26 04:33:49;;;;;;;0.38;0.38;;;;;;;13.42;76.27;100756.38;5136419;28;20052;-82
2022/10/26 04:36:20;;;;;;;0.52;0.52;;;;;;;13.41;75.93;100757.31;5120186;28;20092;-84
2022/10/26 04:38:56;;;;;;;0.90;0.90;;;;;;;13.43;75.36;100750.16;5116177;28;20058;-81
2022/10/26 04:41:30;;;;;;;0.73;0.73;;;;;;;13.41;75.58;100752.03;5120948;29;20038;-83
2022/10/26 04:44:04;;;;;;;0.68;0.65;;;;;;;13.42;75.62;100751.13;5121950;28;20402;-83
2022/10/26 04:46:40;;;;;;;0.20;0.20;;;;;;;13.41;75.71;100748.53;5109859;29;20036;-83
2022/10/26 04:49:10;;;;;;;0.30;0.30;;;;;;;13.40;76.23;100749.44;5090788;29;20527;-80
2022/10/26 04:51:41;;;;;;;2.92;1.38;;;;;;;13.42;75.45;100751.13;5083746;29;20033;-81
2022/10/26 04:54:14;;;;;;;0.90;0.63;;;;;;;13.44;75.68;100754.53;5099118;28;20410;-81
2022/10/26 04:56:45;;;;;;;0.40;0.40;;;;;;;13.43;75.84;100746.69;5070011;29;20035;-82
2022/10/26 04:59:16;;;;;;;0.30;0.30;;;;;;;13.41;75.97;100749.41;5090484;28;20043;-83
2022/10/26 05:01:46;;;;;;;0.20;0.20;;;;;;;13.51;75.53;100752.53;5088605;29;20087;-83
2022/10/26 05:04:20;;;;;;;0.35;0.35;;;;;;;13.52;75.90;100754.25;5070311;29;20044;-84
2022/10/26 05:06:53;;;;;;;0.20;0.20;;;;;;;13.58;75.77;100755.78;5087830;29;20032;-83
2022/10/26 05:09:27;;;;;;;0.30;0.30;;;;;;;13.54;75.85;100745.34;5084606;29;20039;-82
2022/10/26 05:11:57;;;;;;;0.32;0.32;;;;;;;13.48;76.18;100750.00;5099533;29;20039;-83
2022/10/26 05:14:33;;;;;;;3.20;0.57;;;;;;;13.56;76.38;100749.72;5102763;29;20040;-83
2022/10/26 05:17:16;;;;;;;0.30;0.30;;;;;;;13.56;76.39;100745.28;5073721;29;20047;-83
2022/10/26 05:19:51;;;;;;;0.50;0.50;;;;;;;13.56;75.81;100747.91;5112277;28;20075;-81
2022/10/26 05:22:24;;;;;;;0.28;0.28;;;;;;;13.59;75.94;100741.69;5093166;29;20099;-83
2022/10/26 05:24:55;;;;;;;0.30;0.30;;;;;;;13.56;76.46;100747.91;5067836;29;20072;-84
2022/10/26 05:27:25;;;;;;;0.40;0.40;;;;;;;13.55;76.38;100746.22;5051236;29;20012;-81
2022/10/26 05:29:57;;;;;;;0.32;0.32;;;;;;;13.59;76.30;100741.69;5101383;28;20062;-84
2022/10/26 05:32:28;;;;;;;0.50;0.50;;;;;;;13.64;75.82;100732.66;5075557;29;20442;-81
2022/10/26 05:35:03;;;;;;;0.30;0.30;;;;;;;13.60;77.12;100733.72;5099975;28;20059;-81
2022/10/26 05:37:38;;;;;;;3.72;0.55;;;;;;;13.60;76.62;100743.38;5108438;28;20127;-81
2022/10/26 05:40:09;;;;;;;0.30;0.30;;;;;;;13.68;76.08;100741.31;5120249;29;20068;-83
2022/10/26 05:42:40;;;;;;;0.50;0.50;;;;;;;13.66;76.27;100743.16;5118698;28;20044;-83
2022/10/26 05:45:11;;;;;;;0.45;0.45;;;;;;;13.68;76.71;100752.72;5103511;28;20079;-84
2022/10/26 05:47:43;;;;;;;3.83;2.38;;;;;;;13.69;76.91;100750.94;5117179;28;20064;-83
2022/10/26 05:50:16;;;;;;;0.40;0.40;;;;;;;13.66;76.29;100745.81;5100146;28;20088;-84
2022/10/26 05:52:50;;;;;;;0.32;0.32;;;;;;;13.66;76.51;100748.44;5090079;28;20047;-88
2022/10/26 05:55:21;;;;;;;0.20;0.20;;;;;;;13.66;76.44;100754.56;5117299;28;20100;-83
2022/10/26 05:57:52;;;;;;;0.32;0.32;;;;;;;13.70;76.39;100760.56;5114180;28;20135;-81
2022/10/26 06:00:24;;;;;;;0.20;0.20;;;;;;;13.69;76.23;100756.22;5081834;29;20032;-81
2022/10/26 06:02:55;;;;;;;0.22;0.22;;;;;;;13.71;76.32;100766.72;5118371;28;20050;-82
2022/10/26 06:05:28;;;;;;;0.20;0.20;;;;;;;13.68;77.08;100760.63;5099199;29;20043;-85
2022/10/26 06:07:58;;;;;;;1.98;0.68;;;;;;;13.72;76.71;100753.47;5108230;28;23544;-82
2022/10/26 06:10:32;;;;;;;0.70;0.70;;;;;;;13.70;77.21;100765.84;5112429;29;20039;-83
2022/10/26 06:13:04;;;;;;;0.20;0.20;;;;;;;13.75;77.17;100763.91;5120770;28;20601;-86
2022/10/26 06:15:50;;;;;;;0.57;0.57;;;;;;;13.72;76.84;100753.47;5094092;29;20043;-83
2022/10/26 06:18:42;;;;;;;0.47;0.47;;;;;;;13.77;76.74;100759.41;5134175;28;20044;-83
2022/10/26 06:21:17;;;;;;;0.30;0.30;;;;;;;13.77;76.79;100772.59;5137302;28;20107;-81
2022/10/26 06:24:09;;;;;;;0.57;0.57;;;;;;;13.75;77.00;100774.44;5125115;28;20142;-86
2022/10/26 06:26:59;;;;;;;0.20;0.20;;;;;;;13.78;76.53;100774.31;5094842;29;20042;-84
2022/10/26 06:29:43;;;;;;;0.20;0.20;;;;;;;13.78;76.65;100769.03;5091202;29;20055;-82
2022/10/26 06:32:16;;;;;;;0.22;0.22;;;;;;;13.80;76.22;100763.72;5102526;29;20051;-83
2022/10/26 06:34:52;;;;;;;0.30;0.30;;;;;;;13.75;77.06;100769.16;5087571;29;20048;-79
2022/10/26 06:37:25;;;;;;;0.73;0.60;;;;;;;13.79;76.79;100762.84;5089531;29;20024;-86
2022/10/26 06:39:57;;;;;;;0.20;0.20;;;;;;;13.81;76.91;100744.31;5092792;29;20048;-88
2022/10/26 06:42:30;;;;;;;0.20;0.20;;;;;;;13.80;76.78;100751.38;5106409;29;20035;-84
2022/10/26 06:45:01;;;;;;;;;;;;;;;13.94;76.48;100752.59;5089039;28;20742;-84
2022/10/26 06:48:08;;;;;;;0.40;0.40;;;;;;;13.85;77.08;100752.03;5088629;29;19946;-85
2022/10/26 06:50:52;;;;;;;0.35;0.35;;;;;;;13.86;77.43;100752.91;5073232;29;20072;-82
2022/10/26 06:53:42;;;;;;;;;;;;;;;13.92;77.13;100765.00;5101161;29;20844;-87
2022/10/26 06:56:13;;;;;;;0.20;0.20;;;;;;;13.86;77.54;100766.09;5090581;29;20009;-82
2022/10/26 06:58:53;;;;;;;0.95;0.95;;;;;;;13.83;77.86;100767.09;5109225;29;20048;-83
2022/10/26 07:01:24;;;;;;;0.43;0.43;;;;;;;13.83;77.97;100771.50;5106694;28;20107;-83
2022/10/26 07:03:54;;;;;;;0.30;0.30;;;;;;;13.92;77.11;100775.56;5116244;28;20184;-83
2022/10/26 07:06:25;;;;;;;0.20;0.20;;;;;;;13.91;77.15;100785.22;5110417;29;20024;-82
2022/10/26 07:08:56;;;;;;;0.20;0.20;;;;;;;13.89;77.72;100776.50;5098599;29;20037;-85
2022/10/26 07:11:26;;;;;;;0.20;0.20;;;;;;;13.94;78.07;100778.97;5098571;29;20487;-84
2022/10/26 07:13:57;;;;;;;7.28;1.20;;;;;;;13.85;78.15;100798.66;5105138;29;20036;-84
2022/10/26 07:16:28;;;;;;;0.45;0.45;;;;;;;13.88;78.91;100805.59;5101861;29;20047;-84
2022/10/26 07:18:58;;;;;;;0.40;0.40;;;;;;;13.91;78.17;100808.97;5104752;29;20115;-84
2022/10/26 07:21:32;;;;;;;0.50;0.50;;;;;;;13.96;78.17;100816.69;5084277;29;20039;-84
2022/10/26 07:24:05;;;;;;;0.45;0.45;;;;;;;13.92;77.98;100805.41;5093256;29;20048;-86
2022/10/26 07:26:36;;;;;;;0.30;0.30;;;;;;;13.96;77.93;100814.06;5104853;28;20039;-84
2022/10/26 07:29:06;;;;;;;0.20;0.20;;;;;;;14.00;77.82;100826.22;5112121;28;20040;-83
2022/10/26 07:31:37;;;;;;;0.20;0.20;;;;;;;13.99;77.98;100813.94;5135141;28;20043;-84
2022/10/26 07:34:19;;;;;;;2.05;0.52;;;;;;;14.02;77.87;100808.53;5095750;29;20090;-83
2022/10/26 07:36:52;;;;;;;0.22;0.22;;;;;;;14.11;77.64;100807.31;5103625;29;20028;-83
2022/10/26 07:39:23;;;;;;;0.55;0.55;;;;;;;14.08;77.89;100802.16;5107332;29;20290;-83
2022/10/26 07:41:53;;;;;;;0.38;0.38;;;;;;;14.17;77.45;100812.34;5135731;28;20122;-84
2022/10/26 07:44:34;;;;;;;;;;;;;;;14.13;77.51;100818.69;5120321;28;20050;-83
2022/10/26 07:47:04;;;;;;;0.20;0.20;;;;;;;14.12;77.92;100812.53;5125817;28;19935;-84
2022/10/26 07:49:35;;;;;;;1.30;0.90;;;;;;;14.16;77.61;100824.69;5111238;29;20052;-85
2022/10/26 07:52:06;;;;;;;0.57;0.55;;;;;;;14.20;77.15;100816.63;5094118;29;20062;-88
2022/10/26 07:54:47;;;;;;;0.55;0.55;;;;;;;14.19;77.27;100807.00;5100346;28;20048;-88
2022/10/26 07:57:17;;;;;;;0.30;0.30;;;;;;;14.21;77.23;100813.94;5081982;29;20061;-86
2022/10/26 07:59:51;;;;;;;;;;;;;;;14.21;77.50;100818.34;5078823;29;20106;-86
2022/10/26 08:02:25;;;;;;;0.50;0.50;;;;;;;14.29;76.97;100822.41;5115487;28;19915;-86
2022/10/26 08:04:56;;;;;;;0.20;0.20;;;;;;;14.32;77.19;100811.72;5100136;29;20041;-85
2022/10/26 08:07:29;;;;;;;0.20;0.20;;;;;;;14.27;77.04;100818.97;5102074;29;20028;-85
2022/10/26 08:09:59;;;;;;;0.20;0.20;;;;;;;14.29;77.24;100832.09;5102705;29;20039;-85
2022/10/26 08:12:30;;;;;;;0.35;0.35;;;;;;;14.30;76.96;100845.22;5124535;28;20067;-85
2022/10/26 08:15:09;;;;;;;7.38;1.05;;;;;;;14.36;76.98;100843.25;5106208;29;20115;-85
2022/10/26 08:17:40;;;;;;;0.80;0.73;;;;;;;14.37;76.72;100861.66;5076370;28;20665;-84
2022/10/26 08:20:22;;;;;;;0.30;0.30;;;;;;;14.47;76.65;100862.13;5083518;29;20114;-85
2022/10/26 08:23:02;;;;;;;0.60;0.60;;;;;;;14.45;76.91;100864.84;5113663;28;20571;-87
2022/10/26 08:25:34;;;;;;;0.50;0.50;;;;;;;14.46;77.01;100861.28;5084040;29;20101;-85
2022/10/26 08:28:09;;;;;;;0.68;0.68;;;;;;;14.48;77.04;100848.91;5059033;28;20087;-86
2022/10/26 08:30:40;;;;;;;1.85;0.95;;;;;;;14.61;76.50;100848.38;5090131;29;20049;-87
2022/10/26 08:33:10;;;;;;;0.35;0.35;;;;;;;14.65;76.78;100852.63;5103999;28;20119;-85
2022/10/26 08:35:41;;;;;;;1.15;1.05;;;;;;;14.58;76.87;100848.53;5086502;28;20093;-87
2022/10/26 08:38:12;;;;;;;0.60;0.60;;;;;;;14.62;76.80;100845.69;5070540;29;20044;-84
2022/10/26 08:40:42;;;;;;;0.30;0.30;;;;;;;14.64;76.85;100848.25;5085660;29;20093;-83
2022/10/26 08:43:44;;;;;;;0.40;0.40;;;;;;;14.62;76.94;100850.97;5097668;28;20142;-85
2022/10/26 08:46:27;;;;;;;1.08;1.05;;;;;;;14.64;77.47;100853.53;5085558;29;20063;-86
2022/10/26 08:49:21;;;;;;;0.28;0.28;;;;;;;14.67;76.80;100869.25;5086275;29;20051;-84
2022/10/26 08:51:56;;;;;;;0.43;0.43;;;;;;;14.66;77.25;100880.78;5055407;29;20091;-85
2022/10/26 08:54:59;;;;;;;0.30;0.30;;;;;;;14.70;77.41;100887.63;5097651;29;20035;-85
2022/10/26 08:57:38;;;;;;;0.63;0.63;;;;;;;14.68;77.42;100865.69;5120379;28;20450;-85
2022/10/26 09:00:24;;;;;;;0.20;0.20;;;;;;;14.70;77.51;100889.44;5084141;29;20419;-86
2022/10/26 09:02:55;;;;;;;0.32;0.32;;;;;;;14.76;77.18;100895.28;5105601;28;20076;-84
2022/10/26 09:05:45;;;;;;;3.20;0.90;;;;;;;14.79;77.23;100904.91;5083456;29;20071;-85
2022/10/26 09:09:13;;;;;;;0.40;0.40;;;;;;;14.83;77.13;100900.34;5092365;28;20048;-85
2022/10/26 09:11:46;;;;;;;1.02;0.93;;;;;;;14.86;77.75;100906.34;5065199;29;20036;-86
2022/10/26 09:14:32;;;;;;;0.35;0.35;;;;;;;14.90;77.32;100912.38;5068192;29;20216;-85
2022/10/26 09:17:12;;;;;;;0.90;0.90;;;;;;;14.91;77.89;100907.00;5072705;29;20520;-87
2022/10/26 09:20:11;;;;;;;1.55;0.45;;;;;;;14.89;77.52;100916.78;5108047;28;20119;-86
2022/10/26 09:23:20;;;;;;;0.30;0.30;;;;;;;14.95;77.37;100913.91;5121125;28;20032;-88
2022/10/26 09:26:12;;;;;;;0.40;0.40;;;;;;;15.00;77.25;100918.94;5092580;29;20054;-88
2022/10/26 09:28:50;;;;;;;0.20;0.20;;;;;;;15.06;76.82;100916.06;5100453;29;20051;-85
2022/10/26 09:31:22;;;;;;;0.47;0.43;;;;;;;15.03;77.40;100918.00;5115550;28;20629;-86
2022/10/26 09:33:54;;;;;;;0.30;0.30;;;;;;;15.09;77.45;100915.91;5113318;28;20075;-85
2022/10/26 09:36:24;;;;;;;0.22;0.22;;;;;;;15.07;77.62;100915.16;5099985;28;20046;-85
2022/10/26 09:39:03;;;;;;;29.15;2.65;;;;;;;15.19;77.12;100923.47;5127749;28;20448;-88
2022/10/26 09:41:46;;;;;;;0.65;0.60;;;;;;;15.15;77.18;100927.19;5071100;29;20616;-87
2022/10/26 09:44:43;;;;;;;0.35;0.35;;;;;;;15.16;77.49;100928.91;5103393;29;20278;-84
2022/10/26 09:47:32;;;;;;;0.30;0.30;;;;;;;15.27;77.20;100937.19;5113937;28;20066;-86
2022/10/26 09:50:32;;;;;;;0.40;0.40;;;;;;;15.30;77.03;100937.09;5085861;29;20035;-85
2022/10/26 09:53:06;;;;;;;0.98;0.57;;;;;;;15.38;77.06;100937.59;5096350;28;20107;-86
2022/10/26 09:55:44;;;;;;;0.30;0.30;;;;;;;15.33;77.64;100941.38;5116496;28;20036;-86
2022/10/26 09:58:23;;;;;;;0.60;0.60;;;;;;;15.36;77.37;100936.81;5118525;28;20050;-84
2022/10/26 10:00:54;;;;;;;0.40;0.40;;;;;;;15.41;78.37;100949.81;5098565;28;20055;-83
2022/10/26 10:03:30;;;;;;;0.30;0.30;;;;;;;15.57;77.10;100950.03;5114235;28;20035;-84
2022/10/26 10:06:19;;;;;;;0.68;0.68;;;;;;;15.60;77.40;100964.88;5102837;29;20040;-85
2022/10/26 10:09:10;;;;;;;0.40;0.40;;;;;;;15.63;78.21;100965.59;5119639;28;20039;-84
2022/10/26 10:11:54;;;;;;;0.30;0.30;;;;;;;15.71;77.56;100974.06;5116861;29;20075;-85
2022/10/26 10:14:27;;;;;;;1.08;1.02;;;;;;;15.87;77.87;100973.41;5105059;28;20050;-84
2022/10/26 10:17:04;;;;;;;0.47;0.47;;;;;;;16.07;77.55;100975.13;5126250;29;20031;-83
2022/10/26 10:19:36;;;;;;;0.55;0.55;;;;;;;16.28;76.41;100983.03;5104550;28;20727;-82
2022/10/26 10:22:21;;;;;;;0.30;0.30;;;;;;;16.38;75.22;100981.63;5117196;29;20028;-84
2022/10/26 10:24:56;;;;;;;0.40;0.40;;;;;;;16.49;74.42;100986.41;5104579;29;20112;-83
2022/10/26 10:27:28;;;;;;;0.63;0.63;;;;;;;16.53;74.66;100990.66;5134016;28;20028;-85
2022/10/26 10:30:21;;;;;;;0.30;0.30;;;;;;;16.49;75.76;100997.00;5116347;28;20055;-82
2022/10/26 10:33:11;;;;;;;0.30;0.30;;;;;;;16.61;76.06;100995.59;5088709;28;20038;-83
2022/10/26 10:35:49;;;;;;;0.40;0.40;;;;;;;16.66;75.96;101002.38;5110327;29;20046;-86
2022/10/26 10:38:20;;;;;;;0.40;0.40;;;;;;;16.75;74.75;101008.16;5124410;28;20040;-83
2022/10/26 10:40:58;;;;;;;0.30;0.30;;;;;;;16.78;74.64;101014.16;5141359;28;20035;-84
2022/10/26 10:43:29;;;;;;;0.30;0.30;;;;;;;16.90;74.26;101017.16;5107358;29;20067;-84
2022/10/26 10:46:00;;;;;;;0.40;0.40;;;;;;;16.91;74.51;101014.41;5150143;28;20091;-83
2022/10/26 10:48:31;;;;;;;0.20;0.20;;;;;;;16.94;75.59;101010.81;5121126;28;20546;-83
2022/10/26 10:51:16;;;;;;;0.25;0.25;;;;;;;16.99;75.19;101017.59;5126322;28;20032;-83
2022/10/26 10:53:52;;;;;;;0.40;0.40;;;;;;;17.12;74.44;101023.13;5136159;28;20043;-83
2022/10/26 10:56:26;;;;;;;0.40;0.40;;;;;;;17.20;74.35;101027.19;5126925;29;20036;-84
2022/10/26 10:59:23;;;;;;;0.50;0.50;;;;;;;17.31;73.72;101025.72;5095258;29;20103;-84
2022/10/26 11:02:15;;;;;;;0.40;0.40;;;;;;;17.33;73.75;101024.78;5120368;28;20028;-84
2022/10/26 11:05:16;;;;;;;0.52;0.45;;;;;;;17.41;73.42;101033.22;5122647;28;20051;-86
2022/10/26 11:08:24;;;;;;;0.22;0.22;;;;;;;17.44;73.04;101036.56;5125272;28;20039;-82
2022/10/26 11:11:16;;;;;;;0.30;0.30;;;;;;;17.54;72.85;101039.63;5071275;29;20047;-84
2022/10/26 11:13:55;;;;;;;0.40;0.40;;;;;;;17.69;72.84;101037.09;5102325;29;20059;-83
2022/10/26 11:16:35;;;;;;;1.55;0.47;;;;;;;17.80;72.44;101034.75;5082935;29;20029;-82
2022/10/26 11:19:30;;;;;;;0.55;0.55;;;;;;;18.13;70.58;101033.94;5099746;28;20265;-83
2022/10/26 11:22:09;;;;;;;0.57;0.57;;;;;;;18.14;70.36;101042.75;5105494;29;20036;-83
2022/10/26 11:24:45;;;;;;;0.20;0.20;;;;;;;18.36;69.95;101037.13;5120746;28;20048;-85
2022/10/26 11:27:24;;;;;;;0.30;0.30;;;;;;;18.43;69.82;101037.66;5109408;29;20029;-82
2022/10/26 11:30:04;;;;;;;0.47;0.47;;;;;;;18.63;69.00;101036.56;5103921;29;20048;-87
2022/10/26 11:33:04;;;;;;;0.20;0.20;;;;;;;18.69;69.02;101041.50;5105038;29;20445;-83
2022/10/26 11:35:43;;;;;;;0.30;0.30;;;;;;;18.80;67.55;101043.56;5071656;29;20040;-82
2022/10/26 11:38:43;;;;;;;0.20;0.20;;;;;;;18.83;67.44;101044.25;5086217;28;20068;-84
2022/10/26 11:41:35;;;;;;;0.20;0.20;;;;;;;19.05;67.06;101035.06;5079552;29;20247;-83
2022/10/26 11:44:29;;;;;;;0.28;0.28;;;;;;;19.07;67.23;101041.16;5122379;28;20108;-83
2022/10/26 11:47:11;;;;;;;0.20;0.20;;;;;;;19.18;66.96;101048.50;5139960;28;20035;-82
2022/10/26 11:49:49;;;;;;;0.20;0.20;;;;;;;19.37;66.08;101040.31;5126879;28;20056;-83
2022/10/26 11:52:31;;;;;;;0.20;0.20;;;;;;;19.35;65.36;101052.84;5093004;29;20098;-84
2022/10/26 11:55:03;;;;;;;1.25;1.15;;;;;;;19.45;64.72;101047.84;5123241;28;20047;-84
2022/10/26 11:57:36;;;;;;;2.40;0.75;;;;;;;19.48;64.12;101047.66;5129913;28;20043;-84
2022/10/26 12:00:16;;;;;;;0.20;0.20;;;;;;;19.44;64.71;101051.44;5095436;29;20032;-86
2022/10/26 12:02:56;;;;;;;0.68;0.50;;;;;;;19.45;64.24;101054.03;5103880;28;20043;-84
2022/10/26 12:05:39;;;;;;;0.63;0.57;;;;;;;19.45;65.24;101061.13;5108391;29;20146;-86
2022/10/26 12:08:16;;;;;;;0.30;0.30;;;;;;;19.51;65.37;101066.09;5110147;28;20148;-85
2022/10/26 12:11:02;;;;;;;0.20;0.20;;;;;;;19.67;64.72;101068.69;5136013;28;20024;-85
2022/10/26 12:13:41;;;;;;;0.40;0.40;;;;;;;19.73;65.38;101073.66;5139217;28;20509;-86
2022/10/26 12:16:25;;;;;;;0.30;0.30;;;;;;;19.89;62.95;101072.75;5106378;29;20090;-82